createdAt,value
2024-05-09T00:02:03.059Z,101573.25
2024-05-09T00:07:46.705Z,101565.66
2024-05-09T00:17:03.562Z,101560.06
2024-05-09T00:19:42.997Z,101564.84
2024-05-09T00:22:14.145Z,101564.97
2024-05-09T00:24:52.114Z,101570.44
2024-05-09T00:28:03.501Z,101561.88
2024-05-09T00:31:04.043Z,101574.34
2024-05-09T00:37:02.860Z,101571.88
2024-05-09T00:39:45.157Z,101564.84
2024-05-09T00:42:21.921Z,101558.81
2024-05-09T00:55:29.905Z,101559.78
2024-05-09T01:02:37.106Z,101550.25
2024-05-09T01:16:41.356Z,101543.78
2024-05-09T01:19:48.762Z,101546.47
2024-05-09T01:22:25.388Z,101544.91
2024-05-09T01:25:32.367Z,101550.41
2024-05-09T01:28:11.690Z,101543.78
2024-05-09T01:30:48.577Z,101545.56
2024-05-09T01:33:19.389Z,101550.06
2024-05-09T01:36:26.594Z,101554.69
2024-05-09T01:42:41.799Z,101551.00
2024-05-09T01:45:36.080Z,101552.53
2024-05-09T01:48:10.772Z,101545.41
2024-05-09T01:50:44.148Z,101547.91
2024-05-09T01:53:16.831Z,101545.78
2024-05-09T01:56:22.002Z,101542.56
2024-05-09T01:59:30.979Z,101547.06
2024-05-09T02:02:04.579Z,101538.69
2024-05-09T02:04:38.039Z,101543.56
2024-05-09T02:07:09.517Z,101555.63
2024-05-09T02:09:42.930Z,101545.56
2024-05-09T02:12:19.478Z,101551.84
2024-05-09T02:14:57.607Z,101543.75
2024-05-09T02:17:31.232Z,101552.69
2024-05-09T02:20:03.674Z,101553.81
2024-05-09T02:22:36.377Z,101556.56
2024-05-09T02:25:06.759Z,101560.78
2024-05-09T02:27:40.156Z,101552.38
2024-05-09T02:30:31.128Z,101557.31
2024-05-09T02:33:14.493Z,101550.03
2024-05-09T02:41:36.142Z,101554.22
2024-05-09T02:44:21.794Z,101553.81
2024-05-09T02:47:15.518Z,101558.28
2024-05-09T02:53:07.967Z,101555.06
2024-05-09T02:56:05.892Z,101549.75
2024-05-09T02:58:39.032Z,101549.63
2024-05-09T03:01:06.536Z,101556.63
2024-05-09T03:03:45.375Z,101552.16
2024-05-09T03:06:13.390Z,101556.34
2024-05-09T03:09:24.651Z,101558.19
2024-05-09T03:12:16.871Z,101555.53
2024-05-09T03:14:47.016Z,101556.34
2024-05-09T03:17:15.155Z,101555.53
2024-05-09T03:20:00.822Z,101556.34
2024-05-09T03:22:37.511Z,101554.53
2024-05-09T03:25:10.859Z,101555.38
2024-05-09T03:27:40.355Z,101562.53
2024-05-09T03:30:26.178Z,101558.84
2024-05-09T03:33:03.231Z,101559.03
2024-05-09T03:35:36.485Z,101550.31
2024-05-09T03:38:06.766Z,101553.00
2024-05-09T03:40:37.017Z,101553.00
2024-05-09T03:43:11.695Z,101553.00
2024-05-09T03:46:12.529Z,101560.25
2024-05-09T03:48:53.036Z,101551.56
2024-05-09T03:51:23.650Z,101555.19
2024-05-09T03:54:25.458Z,101563.34
2024-05-09T03:56:54.691Z,101553.81
2024-05-09T03:59:28.371Z,101554.78
2024-05-09T04:02:01.604Z,101550.44
2024-05-09T04:04:35.111Z,101556.03
2024-05-09T04:07:08.778Z,101551.84
2024-05-09T04:09:39.588Z,101555.34
2024-05-09T04:12:20.900Z,101558.00
2024-05-09T04:14:54.372Z,101559.94
2024-05-09T04:17:26.292Z,101575.06
2024-05-09T04:19:59.658Z,101574.22
2024-05-09T04:23:11.167Z,101560.22
2024-05-09T04:25:36.671Z,101561.91
2024-05-09T04:28:08.696Z,101563.59
2024-05-09T04:30:39.637Z,101559.09
2024-05-09T04:33:31.902Z,101562.47
2024-05-09T04:39:56.979Z,101566.25
2024-05-09T04:42:43.605Z,101567.94
2024-05-09T04:45:54.150Z,101565.28
2024-05-09T04:48:28.356Z,101572.28
2024-05-09T04:50:59.151Z,101573.13
2024-05-09T04:53:35.723Z,101569.50
2024-05-09T04:56:10.232Z,101573.00
2024-05-09T04:58:44.320Z,101577.06
2024-05-09T05:01:12.501Z,101585.75
2024-05-09T05:03:46.321Z,101581.81
2024-05-09T05:06:14.153Z,101583.66
2024-05-09T05:08:49.728Z,101591.38
2024-05-09T05:12:24.183Z,101591.25
2024-05-09T05:14:52.341Z,101589.28
2024-05-09T05:17:22.876Z,101584.66
2024-05-09T05:19:57.172Z,101595.03
2024-05-09T05:22:27.704Z,101587.75
2024-05-09T05:25:20.972Z,101588.34
2024-05-09T05:34:28.399Z,101589.06
2024-05-09T05:40:03.338Z,101600.72
2024-05-09T05:49:09.167Z,101591.75
2024-05-09T05:51:49.307Z,101597.50
2024-05-09T05:54:25.567Z,101597.94
2024-05-09T05:56:59.065Z,101601.16
2024-05-09T05:59:30.078Z,101605.09
2024-05-09T06:02:04.085Z,101609.16
2024-05-09T06:10:38.088Z,101611.09
2024-05-09T06:13:16.581Z,101615.19
2024-05-09T06:19:10.730Z,101607.59
2024-05-09T06:28:19.979Z,101601.53
2024-05-09T06:30:55.211Z,101601.69
2024-05-09T06:33:32.402Z,101601.94
2024-05-09T06:36:33.223Z,101603.16
2024-05-09T06:39:07.643Z,101608.75
2024-05-09T06:44:43.742Z,101612.13
2024-05-09T06:47:17.013Z,101607.19
2024-05-09T06:49:46.779Z,101613.78
2024-05-09T06:52:18.047Z,101611.81
2024-05-09T06:54:48.168Z,101610.38
2024-05-09T06:57:27.536Z,101616.13
2024-05-09T06:59:59.732Z,101618.22
2024-05-09T07:02:29.698Z,101608.91
2024-05-09T07:04:59.528Z,101618.31
2024-05-09T07:07:29.393Z,101620.38
2024-05-09T07:09:58.923Z,101623.16
2024-05-09T07:12:26.383Z,101618.22
2024-05-09T07:14:56.017Z,101623.81
2024-05-09T07:17:27.977Z,101620.53
2024-05-09T07:20:05.536Z,101611.75
2024-05-09T07:22:36.507Z,101616.34
2024-05-09T07:25:10.769Z,101613.09
2024-05-09T07:30:34.526Z,101605.38
2024-05-09T07:33:03.028Z,101606.16
2024-05-09T07:36:02.313Z,101599.06
2024-05-09T07:38:32.045Z,101602.63
2024-05-09T07:41:06.235Z,101599.34
2024-05-09T07:43:35.094Z,101594.88
2024-05-09T07:47:14.098Z,101591.97
2024-05-09T07:50:35.835Z,101598.75
2024-05-09T07:53:22.175Z,101599.00
2024-05-09T07:54:55.139Z,101603.94
2024-05-09T07:57:25.040Z,101608.16
2024-05-09T07:59:52.112Z,101608.91
2024-05-09T08:02:22.251Z,101614.31
2024-05-09T08:04:49.790Z,101601.47
2024-05-09T08:10:36.428Z,101600.88
2024-05-09T08:13:15.201Z,101595.06
2024-05-09T08:18:36.917Z,101590.72
2024-05-09T08:21:13.050Z,101588.56
2024-05-09T08:23:54.026Z,101591.97
2024-05-09T08:27:09.033Z,101586.59
2024-05-09T08:32:51.342Z,101583.75
2024-05-09T08:35:22.056Z,101576.00
2024-05-09T08:37:53.591Z,101571.47
2024-05-09T08:40:33.969Z,101576.66
2024-05-09T08:43:27.395Z,101576.28
2024-05-09T08:46:01.819Z,101575.25
2024-05-09T08:48:44.899Z,101578.91
2024-05-09T08:51:18.233Z,101573.88
2024-05-09T08:53:49.054Z,101571.19
2024-05-09T08:56:40.592Z,101572.84
2024-05-09T08:59:14.945Z,101572.63
2024-05-09T09:01:59.954Z,101564.53
2024-05-09T09:04:37.313Z,101569.03
2024-05-09T09:07:09.178Z,101563.47
2024-05-09T09:09:43.556Z,101566.16
2024-05-09T09:12:15.127Z,101561.75
2024-05-09T09:15:13.807Z,101568.56
2024-05-09T09:18:19.870Z,101564.56
2024-05-09T09:24:45.372Z,101562.16
2024-05-09T09:31:07.821Z,101564.69
2024-05-09T09:33:42.571Z,101552.72
2024-05-09T09:36:24.304Z,101553.34
2024-05-09T09:39:26.907Z,101554.44
2024-05-09T09:42:18.951Z,101558.06
2024-05-09T09:44:54.621Z,101547.28
2024-05-09T09:48:11.572Z,101552.25
2024-05-09T09:50:52.381Z,101555.25
2024-05-09T09:56:09.108Z,101555.47
2024-05-09T09:56:30.683Z,101547.69
2024-05-09T09:59:05.855Z,101554.63
2024-05-09T10:01:34.824Z,101543.72
2024-05-09T10:04:08.625Z,101543.59
2024-05-09T10:06:41.294Z,101535.81
2024-05-09T10:09:17.886Z,101533.13
2024-05-09T10:12:07.428Z,101534.91
2024-05-09T10:15:04.994Z,101537.06
2024-05-09T10:17:36.144Z,101535.13
2024-05-09T10:20:30.897Z,101529.38
2024-05-09T10:23:07.057Z,101528.47
2024-05-09T10:25:37.401Z,101517.50
2024-05-09T10:28:05.234Z,101520.47
2024-05-09T10:31:20.481Z,101524.22
2024-05-09T10:36:51.775Z,101509.31
2024-05-09T10:39:29.317Z,101507.59
2024-05-09T10:42:42.852Z,101504.47
2024-05-09T10:45:52.316Z,101496.09
2024-05-09T10:48:39.159Z,101501.38
2024-05-09T10:51:51.027Z,101505.81
2024-05-09T10:54:53.725Z,101502.41
2024-05-09T10:57:28.227Z,101493.88
2024-05-09T11:00:18.990Z,101485.69
2024-05-09T11:02:58.524Z,101488.41
2024-05-09T11:05:29.404Z,101483.09
2024-05-09T11:08:13.880Z,101483.06
2024-05-09T11:11:14.795Z,101478.25
2024-05-09T11:17:46.851Z,101477.22
2024-05-09T11:28:29.235Z,101471.22
2024-05-09T11:36:05.576Z,101466.25
2024-05-09T11:37:37.218Z,101464.41
2024-05-09T11:43:46.763Z,101456.00
2024-05-09T11:46:55.103Z,101456.78
2024-05-09T11:50:07.897Z,101456.66
2024-05-09T11:53:10.548Z,101450.19
2024-05-09T11:56:01.540Z,101455.22
2024-05-09T11:58:40.027Z,101437.03
2024-05-09T12:01:43.041Z,101443.72
2024-05-09T12:04:41.950Z,101441.50
2024-05-09T12:07:43.851Z,101438.94
2024-05-09T12:10:35.691Z,101437.16
2024-05-09T12:16:58.845Z,101418.69
2024-05-09T12:23:19.654Z,101411.47
2024-05-09T12:26:11.342Z,101414.66
2024-05-09T12:32:29.125Z,101413.91
2024-05-09T12:35:02.056Z,101404.34
2024-05-09T12:38:19.818Z,101408.94
2024-05-09T12:41:10.557Z,101399.19
2024-05-09T12:43:50.062Z,101401.88
2024-05-09T12:46:48.916Z,101396.91
2024-05-09T12:49:21.612Z,101396.75
2024-05-09T12:52:00.118Z,101392.00
2024-05-09T12:55:13.207Z,101385.59
2024-05-09T12:58:20.135Z,101395.25
2024-05-09T13:00:47.855Z,101388.59
2024-05-09T13:03:38.787Z,101385.72
2024-05-09T13:06:13.397Z,101376.63
2024-05-09T13:08:57.497Z,101372.50
2024-05-09T13:11:35.024Z,101374.25
2024-05-09T13:14:22.831Z,101363.19
2024-05-09T13:16:58.444Z,101361.03
2024-05-09T13:19:36.675Z,101363.59
2024-05-09T13:22:31.588Z,101360.53
2024-05-09T13:25:17.031Z,101363.09
2024-05-09T13:27:57.300Z,101360.41
2024-05-09T13:30:54.018Z,101354.88
2024-05-09T13:33:51.795Z,101359.78
2024-05-09T13:36:46.263Z,101349.22
2024-05-09T13:39:41.062Z,101343.03
2024-05-09T13:42:16.500Z,101340.63
2024-05-09T13:44:56.337Z,101337.91
2024-05-09T13:47:50.380Z,101330.66
2024-05-09T13:50:31.492Z,101328.16
2024-05-09T13:53:20.029Z,101322.78
2024-05-09T13:56:05.979Z,101326.50
2024-05-09T13:58:38.846Z,101326.88
2024-05-09T14:01:08.432Z,101323.56
2024-05-09T14:03:54.177Z,101323.56
2024-05-09T14:06:36.307Z,101319.56
2024-05-09T14:12:11.371Z,101307.63
2024-05-09T14:15:22.039Z,101292.25
2024-05-09T14:18:14.132Z,101298.84
2024-05-09T14:21:45.386Z,101298.44
2024-05-09T14:24:25.562Z,101297.13
2024-05-09T14:26:57.467Z,101280.53
2024-05-09T14:29:44.460Z,101282.59
2024-05-09T14:32:39.013Z,101280.47
2024-05-09T14:35:24.617Z,101272.78
2024-05-09T14:37:58.934Z,101274.66
2024-05-09T14:40:41.630Z,101264.69
2024-05-09T14:43:55.489Z,101269.25
2024-05-09T14:46:59.223Z,101259.69
2024-05-09T14:49:59.372Z,101266.75
2024-05-09T14:52:41.270Z,101261.72
2024-05-09T14:55:27.165Z,101254.91
2024-05-09T15:02:01.184Z,101250.53
2024-05-09T15:05:38.384Z,101255.09
2024-05-09T15:12:21.589Z,101241.31
2024-05-09T15:18:50.422Z,101219.59
2024-05-09T15:21:39.138Z,101229.34
2024-05-09T15:25:00.888Z,101218.78
2024-05-09T15:31:43.518Z,101220.16
2024-05-09T15:37:35.627Z,101204.97
2024-05-09T15:40:40.611Z,101213.06
2024-05-09T15:47:24.607Z,101207.28
2024-05-09T15:50:20.630Z,101199.38
2024-05-09T15:53:17.268Z,101214.31
2024-05-09T15:55:58.227Z,101200.22
2024-05-09T15:58:51.975Z,101195.00
2024-05-09T16:01:52.115Z,101206.00
2024-05-09T16:05:10.941Z,101196.06
2024-05-09T16:11:09.995Z,101198.50
2024-05-09T16:14:34.406Z,101194.78
2024-05-09T16:17:46.552Z,101198.50
2024-05-09T16:20:38.758Z,101198.91
2024-05-09T16:23:20.311Z,101198.25
2024-05-09T16:26:26.396Z,101192.88
2024-05-09T16:29:23.240Z,101190.16
2024-05-09T16:31:58.123Z,101188.31
2024-05-09T16:37:58.563Z,101185.88
2024-05-09T16:40:54.678Z,101177.41
2024-05-09T16:50:26.341Z,101178.44
2024-05-09T16:56:36.168Z,101174.94
2024-05-09T17:03:16.638Z,101177.91
2024-05-09T17:09:50.015Z,101178.38
2024-05-09T17:12:32.123Z,101171.97
2024-05-09T17:15:21.141Z,101176.31
2024-05-09T17:18:03.526Z,101172.13
2024-05-09T17:20:54.478Z,101175.00
2024-05-09T17:27:46.093Z,101172.06
2024-05-09T17:30:36.171Z,101177.84
2024-05-09T17:33:26.816Z,101178.84
2024-05-09T17:36:03.642Z,101175.75
2024-05-09T17:38:35.681Z,101169.91
2024-05-09T17:41:05.627Z,101170.09
2024-05-09T17:43:52.829Z,101170.50
2024-05-09T17:46:35.713Z,101171.06
2024-05-09T17:49:22.914Z,101175.19
2024-05-09T17:52:38.073Z,101168.50
2024-05-09T17:55:21.151Z,101164.72
2024-05-09T17:58:19.366Z,101170.47
2024-05-09T18:01:04.993Z,101172.94
2024-05-09T18:03:42.175Z,101161.69
2024-05-09T18:06:15.969Z,101169.13
2024-05-09T18:09:44.936Z,101170.53
2024-05-09T18:12:44.876Z,101170.50
2024-05-09T18:15:38.561Z,101172.72
2024-05-09T18:18:42.825Z,101162.72
2024-05-09T18:21:15.751Z,101165.13
2024-05-09T18:23:42.844Z,101171.28
2024-05-09T18:26:19.022Z,101169.94
2024-05-09T18:28:47.468Z,101173.22
2024-05-09T18:31:51.767Z,101174.94
2024-05-09T18:34:46.316Z,101176.47
2024-05-09T18:41:26.292Z,101177.97
2024-05-09T18:44:14.643Z,101183.06
2024-05-09T18:47:20.977Z,101172.03
2024-05-09T18:50:17.694Z,101175.31
2024-05-09T18:53:17.431Z,101184.94
2024-05-09T18:55:54.961Z,101177.78
2024-05-09T18:58:43.975Z,101186.22
2024-05-09T19:01:51.705Z,101184.94
2024-05-09T19:04:51.952Z,101189.22
2024-05-09T19:08:01.389Z,101186.88
2024-05-09T19:17:16.824Z,101202.25
2024-05-09T19:19:52.500Z,101205.28
2024-05-09T19:22:20.064Z,101202.78
2024-05-09T19:24:49.970Z,101199.47
2024-05-09T19:27:19.738Z,101210.56
2024-05-09T19:29:54.018Z,101214.63
2024-05-09T19:32:32.095Z,101212.28
2024-05-09T19:35:02.493Z,101218.19
2024-05-09T19:37:32.020Z,101212.38
2024-05-09T19:40:08.542Z,101213.72
2024-05-09T19:42:43.101Z,101220.09
2024-05-09T19:45:16.362Z,101220.28
2024-05-09T19:47:43.707Z,101219.44
2024-05-09T19:50:19.554Z,101213.44
2024-05-09T19:52:50.477Z,101212.97
2024-05-09T19:55:20.270Z,101215.38
2024-05-09T19:57:48.203Z,101217.56
2024-05-09T20:00:26.238Z,101219.41
2024-05-09T20:03:03.115Z,101217.91
2024-05-09T20:05:33.689Z,101217.28
2024-05-09T20:08:01.175Z,101213.28
2024-05-09T20:10:33.452Z,101218.81
2024-05-09T20:13:03.301Z,101219.66
2024-05-09T20:15:37.968Z,101223.34
2024-05-09T20:18:06.716Z,101222.34
2024-05-09T20:20:41.614Z,101227.88
2024-05-09T20:23:11.539Z,101226.25
2024-05-09T20:25:44.402Z,101222.41
2024-05-09T20:28:11.732Z,101230.00
2024-05-09T20:30:44.602Z,101225.81
2024-05-09T20:33:15.155Z,101233.03
2024-05-09T20:35:45.264Z,101229.84
2024-05-09T20:38:14.616Z,101229.66
2024-05-09T20:40:44.272Z,101234.69
2024-05-09T20:43:11.993Z,101231.84
2024-05-09T20:45:44.714Z,101230.16
2024-05-09T20:48:12.216Z,101225.81
2024-05-09T20:50:45.657Z,101232.19
2024-05-09T20:53:14.303Z,101233.03
2024-05-09T20:55:45.685Z,101224.47
2024-05-09T20:58:15.311Z,101224.47
2024-05-09T21:00:51.821Z,101228.16
2024-05-09T21:03:19.747Z,101226.69
2024-05-09T21:05:52.160Z,101230.72
2024-05-09T21:08:23.775Z,101220.38
2024-05-09T21:10:56.964Z,101227.09
2024-05-09T21:13:26.200Z,101221.13
2024-05-09T21:16:01.842Z,101227.84
2024-05-09T21:18:29.372Z,101231.72
2024-05-09T21:20:59.283Z,101229.03
2024-05-09T21:23:29.113Z,101221.16
2024-05-09T21:25:59.825Z,101225.69
2024-05-09T21:28:27.151Z,101227.66
2024-05-09T21:30:59.962Z,101225.00
2024-05-09T21:33:29.582Z,101229.88
2024-05-09T21:35:59.607Z,101226.72
2024-05-09T21:38:29.692Z,101225.53
2024-05-09T21:40:59.636Z,101224.56
2024-05-09T21:43:28.696Z,101221.56
2024-05-09T21:46:01.162Z,101217.72
2024-05-09T21:48:29.114Z,101218.06
2024-05-09T21:50:58.962Z,101214.72
2024-05-09T21:53:29.546Z,101215.09
2024-05-09T21:56:01.413Z,101225.00
2024-05-09T21:58:29.292Z,101220.19
2024-05-09T22:01:03.785Z,101221.53
2024-05-09T22:03:31.316Z,101218.88
2024-05-09T22:06:07.210Z,101213.03
2024-05-09T22:08:37.078Z,101218.41
2024-05-09T22:11:07.377Z,101217.91
2024-05-09T22:13:38.518Z,101218.91
2024-05-09T22:16:12.071Z,101218.28
2024-05-09T22:18:44.938Z,101224.28
2024-05-09T22:21:14.935Z,101218.78
2024-05-09T22:23:45.108Z,101215.94
2024-05-09T22:26:18.167Z,101212.09
2024-05-09T22:28:48.508Z,101218.28
2024-05-09T22:31:23.693Z,101221.28
2024-05-09T22:33:54.649Z,101211.56
2024-05-09T22:36:26.344Z,101217.25
2024-05-09T22:38:59.926Z,101213.75
2024-05-09T22:41:32.967Z,101217.59
2024-05-09T22:44:05.866Z,101216.22
2024-05-09T22:46:38.425Z,101217.59
2024-05-09T22:49:07.043Z,101216.09
2024-05-09T22:51:37.246Z,101221.94
2024-05-09T22:54:05.060Z,101214.25
2024-05-09T22:56:35.060Z,101220.59
2024-05-09T22:59:03.007Z,101213.72
2024-05-09T23:01:33.322Z,101218.94
2024-05-09T23:04:03.609Z,101216.75
2024-05-09T23:06:34.519Z,101208.91
2024-05-09T23:09:01.975Z,101220.44
2024-05-09T23:11:32.088Z,101214.56
2024-05-09T23:13:59.420Z,101212.91
2024-05-09T23:16:29.144Z,101216.75
2024-05-09T23:18:56.457Z,101212.91
2024-05-09T23:21:29.158Z,101215.03
2024-05-09T23:23:56.392Z,101216.84
2024-05-09T23:26:26.630Z,101212.47
2024-05-09T23:28:56.541Z,101212.84
2024-05-09T23:31:26.447Z,101214.19
2024-05-09T23:33:55.284Z,101220.88
2024-05-09T23:36:31.048Z,101217.53
2024-05-09T23:38:58.821Z,101219.91
2024-05-09T23:41:29.545Z,101210.53
2024-05-09T23:43:58.544Z,101206.84
2024-05-09T23:46:29.083Z,101212.88
2024-05-09T23:48:57.170Z,101212.38
2024-05-09T23:51:30.646Z,101207.38
2024-05-09T23:53:58.201Z,101204.03
2024-05-09T23:56:28.737Z,101206.84
2024-05-09T23:58:56.399Z,101201.03
